sensor_id;sensor_type;location;lat;lon;timestamp;P1;durP1;ratioP1;P2;durP2;ratioP2
11255;SDS011;5685;52.384;13.420;2023-03-20T00:00:31;74.70;;;40.30;;
11255;SDS011;5685;52.384;13.420;2023-03-20T00:03:35;74.40;;;40.27;;
11255;SDS011;5685;52.384;13.420;2023-03-20T00:06:39;74.23;;;40.20;;
11255;SDS011;5685;52.384;13.420;2023-03-20T00:09:42;74.77;;;40.40;;
11255;SDS011;5685;52.384;13.420;2023-03-20T00:12:45;74.57;;;40.30;;
11255;SDS011;5685;52.384;13.420;2023-03-20T00:15:49;74.83;;;40.50;;
11255;SDS011;5685;52.384;13.420;2023-03-20T00:18:52;74.87;;;40.40;;
11255;SDS011;5685;52.384;13.420;2023-03-20T00:21:56;75.07;;;40.50;;
11255;SDS011;5685;52.384;13.420;2023-03-20T00:24:59;74.63;;;40.27;;
11255;SDS011;5685;52.384;13.420;2023-03-20T00:28:02;75.03;;;40.40;;
11255;SDS011;5685;52.384;13.420;2023-03-20T00:31:13;74.60;;;40.30;;
11255;SDS011;5685;52.384;13.420;2023-03-20T00:34:24;74.80;;;40.40;;
11255;SDS011;5685;52.384;13.420;2023-03-20T00:37:29;75.13;;;40.50;;
11255;SDS011;5685;52.384;13.420;2023-03-20T00:40:32;74.47;;;40.10;;
11255;SDS011;5685;52.384;13.420;2023-03-20T00:43:34;74.70;;;40.33;;
11255;SDS011;5685;52.384;13.420;2023-03-20T00:46:37;75.00;;;40.40;;
11255;SDS011;5685;52.384;13.420;2023-03-20T00:49:41;74.90;;;40.40;;
11255;SDS011;5685;52.384;13.420;2023-03-20T00:52:46;74.30;;;40.20;;
11255;SDS011;5685;52.384;13.420;2023-03-20T00:55:49;74.80;;;40.47;;
11255;SDS011;5685;52.384;13.420;2023-03-20T00:58:52;73.83;;;40.10;;
11255;SDS011;5685;52.384;13.420;2023-03-20T01:01:55;73.90;;;40.20;;
11255;SDS011;5685;52.384;13.420;2023-03-20T01:04:57;74.03;;;40.30;;
11255;SDS011;5685;52.384;13.420;2023-03-20T01:08:04;73.87;;;40.30;;
11255;SDS011;5685;52.384;13.420;2023-03-20T01:11:11;73.40;;;40.00;;
11255;SDS011;5685;52.384;13.420;2023-03-20T01:14:14;73.67;;;40.17;;
11255;SDS011;5685;52.384;13.420;2023-03-20T01:17:18;73.50;;;40.13;;
11255;SDS011;5685;52.384;13.420;2023-03-20T01:20:23;73.50;;;40.03;;
11255;SDS011;5685;52.384;13.420;2023-03-20T01:23:28;73.87;;;40.23;;
11255;SDS011;5685;52.384;13.420;2023-03-20T01:26:32;73.43;;;40.07;;
11255;SDS011;5685;52.384;13.420;2023-03-20T01:29:36;73.90;;;40.20;;
11255;SDS011;5685;52.384;13.420;2023-03-20T01:32:39;73.77;;;40.30;;
11255;SDS011;5685;52.384;13.420;2023-03-20T01:35:43;73.83;;;40.20;;
11255;SDS011;5685;52.384;13.420;2023-03-20T01:38:47;73.63;;;40.20;;
11255;SDS011;5685;52.384;13.420;2023-03-20T01:41:54;73.37;;;40.00;;
11255;SDS011;5685;52.384;13.420;2023-03-20T01:44:57;73.97;;;40.27;;
11255;SDS011;5685;52.384;13.420;2023-03-20T01:48:01;73.30;;;40.03;;
11255;SDS011;5685;52.384;13.420;2023-03-20T01:51:12;73.47;;;40.10;;
11255;SDS011;5685;52.384;13.420;2023-03-20T01:54:17;73.87;;;40.17;;
11255;SDS011;5685;52.384;13.420;2023-03-20T01:57:21;73.40;;;40.10;;
11255;SDS011;5685;52.384;13.420;2023-03-20T02:00:25;72.77;;;39.80;;
11255;SDS011;5685;52.384;13.420;2023-03-20T02:03:28;73.43;;;40.00;;
11255;SDS011;5685;52.384;13.420;2023-03-20T02:06:31;73.00;;;39.87;;
11255;SDS011;5685;52.384;13.420;2023-03-20T02:09:36;73.77;;;40.20;;
11255;SDS011;5685;52.384;13.420;2023-03-20T02:12:39;73.10;;;39.90;;
11255;SDS011;5685;52.384;13.420;2023-03-20T02:15:56;73.60;;;40.10;;
11255;SDS011;5685;52.384;13.420;2023-03-20T02:19:01;72.80;;;39.80;;
11255;SDS011;5685;52.384;13.420;2023-03-20T02:22:19;73.83;;;40.27;;
11255;SDS011;5685;52.384;13.420;2023-03-20T02:25:40;73.67;;;40.10;;
11255;SDS011;5685;52.384;13.420;2023-03-20T02:36:02;73.77;;;40.30;;
11255;SDS011;5685;52.384;13.420;2023-03-20T02:42:57;73.00;;;39.80;;
11255;SDS011;5685;52.384;13.420;2023-03-20T02:46:05;73.47;;;40.10;;
11255;SDS011;5685;52.384;13.420;2023-03-20T02:49:16;73.23;;;40.07;;
11255;SDS011;5685;52.384;13.420;2023-03-20T02:52:25;73.00;;;39.90;;
11255;SDS011;5685;52.384;13.420;2023-03-20T02:55:36;73.77;;;40.17;;
11255;SDS011;5685;52.384;13.420;2023-03-20T02:58:47;73.47;;;40.03;;
11255;SDS011;5685;52.384;13.420;2023-03-20T03:01:52;73.90;;;40.20;;
11255;SDS011;5685;52.384;13.420;2023-03-20T03:04:57;73.63;;;40.07;;
11255;SDS011;5685;52.384;13.420;2023-03-20T03:08:02;73.87;;;40.07;;
11255;SDS011;5685;52.384;13.420;2023-03-20T03:11:07;73.27;;;40.10;;
11255;SDS011;5685;52.384;13.420;2023-03-20T03:14:12;73.67;;;40.07;;
11255;SDS011;5685;52.384;13.420;2023-03-20T03:17:18;73.60;;;40.00;;
11255;SDS011;5685;52.384;13.420;2023-03-20T03:20:23;73.93;;;40.13;;
11255;SDS011;5685;52.384;13.420;2023-03-20T03:23:29;73.80;;;40.10;;
11255;SDS011;5685;52.384;13.420;2023-03-20T03:26:34;73.97;;;40.10;;
11255;SDS011;5685;52.384;13.420;2023-03-20T03:29:40;73.93;;;40.13;;
11255;SDS011;5685;52.384;13.420;2023-03-20T03:32:46;73.73;;;40.07;;
11255;SDS011;5685;52.384;13.420;2023-03-20T03:35:51;74.33;;;40.30;;
11255;SDS011;5685;52.384;13.420;2023-03-20T03:38:59;74.10;;;40.20;;
11255;SDS011;5685;52.384;13.420;2023-03-20T03:42:04;74.00;;;40.10;;
11255;SDS011;5685;52.384;13.420;2023-03-20T03:45:12;74.90;;;40.40;;
11255;SDS011;5685;52.384;13.420;2023-03-20T03:48:17;74.67;;;40.30;;
11255;SDS011;5685;52.384;13.420;2023-03-20T03:51:22;74.43;;;40.20;;
11255;SDS011;5685;52.384;13.420;2023-03-20T03:54:27;74.20;;;40.20;;
11255;SDS011;5685;52.384;13.420;2023-03-20T03:57:33;74.60;;;40.30;;
11255;SDS011;5685;52.384;13.420;2023-03-20T04:00:39;74.50;;;40.13;;
11255;SDS011;5685;52.384;13.420;2023-03-20T04:03:45;74.43;;;40.20;;
11255;SDS011;5685;52.384;13.420;2023-03-20T04:06:49;74.40;;;40.20;;
11255;SDS011;5685;52.384;13.420;2023-03-20T04:09:52;74.23;;;40.00;;
11255;SDS011;5685;52.384;13.420;2023-03-20T04:12:55;74.33;;;40.10;;
11255;SDS011;5685;52.384;13.420;2023-03-20T04:15:59;74.53;;;40.23;;
11255;SDS011;5685;52.384;13.420;2023-03-20T04:19:02;74.53;;;40.20;;
11255;SDS011;5685;52.384;13.420;2023-03-20T04:22:05;74.60;;;40.20;;
11255;SDS011;5685;52.384;13.420;2023-03-20T04:25:08;74.47;;;40.20;;
11255;SDS011;5685;52.384;13.420;2023-03-20T04:28:15;74.63;;;40.00;;
11255;SDS011;5685;52.384;13.420;2023-03-20T04:31:20;74.53;;;39.93;;
11255;SDS011;5685;52.384;13.420;2023-03-20T04:34:23;74.80;;;40.17;;
11255;SDS011;5685;52.384;13.420;2023-03-20T04:37:26;75.00;;;40.20;;
11255;SDS011;5685;52.384;13.420;2023-03-20T04:40:29;74.80;;;40.13;;
11255;SDS011;5685;52.384;13.420;2023-03-20T04:43:31;75.23;;;40.20;;
11255;SDS011;5685;52.384;13.420;2023-03-20T04:46:36;74.70;;;40.27;;
11255;SDS011;5685;52.384;13.420;2023-03-20T04:49:38;75.40;;;40.50;;
11255;SDS011;5685;52.384;13.420;2023-03-20T04:52:41;74.60;;;40.00;;
11255;SDS011;5685;52.384;13.420;2023-03-20T04:55:44;74.97;;;40.07;;
11255;SDS011;5685;52.384;13.420;2023-03-20T04:58:47;74.80;;;40.07;;
11255;SDS011;5685;52.384;13.420;2023-03-20T05:01:51;74.50;;;39.97;;
11255;SDS011;5685;52.384;13.420;2023-03-20T05:04:54;74.83;;;40.07;;
11255;SDS011;5685;52.384;13.420;2023-03-20T05:07:57;74.57;;;40.00;;
11255;SDS011;5685;52.384;13.420;2023-03-20T05:11:00;74.90;;;40.10;;
11255;SDS011;5685;52.384;13.420;2023-03-20T05:14:02;74.80;;;40.00;;
11255;SDS011;5685;52.384;13.420;2023-03-20T05:17:07;75.07;;;40.13;;
11255;SDS011;5685;52.384;13.420;2023-03-20T05:20:10;75.10;;;40.17;;
11255;SDS011;5685;52.384;13.420;2023-03-20T05:23:13;75.13;;;40.00;;
11255;SDS011;5685;52.384;13.420;2023-03-20T05:26:15;75.03;;;40.10;;
11255;SDS011;5685;52.384;13.420;2023-03-20T05:29:18;74.73;;;40.00;;
11255;SDS011;5685;52.384;13.420;2023-03-20T05:32:23;74.97;;;40.10;;
11255;SDS011;5685;52.384;13.420;2023-03-20T05:35:26;75.10;;;39.93;;
11255;SDS011;5685;52.384;13.420;2023-03-20T05:38:28;74.60;;;39.80;;
11255;SDS011;5685;52.384;13.420;2023-03-20T05:41:31;74.23;;;39.70;;
11255;SDS011;5685;52.384;13.420;2023-03-20T05:44:34;74.53;;;39.90;;
11255;SDS011;5685;52.384;13.420;2023-03-20T05:47:38;74.67;;;40.00;;
11255;SDS011;5685;52.384;13.420;2023-03-20T05:50:41;74.77;;;40.00;;
11255;SDS011;5685;52.384;13.420;2023-03-20T05:53:44;74.33;;;39.93;;
11255;SDS011;5685;52.384;13.420;2023-03-20T05:56:46;74.80;;;39.97;;
11255;SDS011;5685;52.384;13.420;2023-03-20T05:59:49;74.50;;;39.77;;
11255;SDS011;5685;52.384;13.420;2023-03-20T06:02:54;74.90;;;40.00;;
11255;SDS011;5685;52.384;13.420;2023-03-20T06:05:57;74.73;;;40.00;;
11255;SDS011;5685;52.384;13.420;2023-03-20T06:09:00;74.60;;;39.97;;
11255;SDS011;5685;52.384;13.420;2023-03-20T06:12:02;74.60;;;39.90;;
11255;SDS011;5685;52.384;13.420;2023-03-20T06:15:06;75.07;;;40.10;;
11255;SDS011;5685;52.384;13.420;2023-03-20T06:18:10;74.47;;;39.97;;
11255;SDS011;5685;52.384;13.420;2023-03-20T06:21:13;75.10;;;40.10;;
11255;SDS011;5685;52.384;13.420;2023-03-20T06:24:16;74.90;;;40.00;;
11255;SDS011;5685;52.384;13.420;2023-03-20T06:27:19;74.70;;;39.90;;
11255;SDS011;5685;52.384;13.420;2023-03-20T06:30:21;74.60;;;39.83;;
11255;SDS011;5685;52.384;13.420;2023-03-20T06:33:26;75.00;;;40.00;;
11255;SDS011;5685;52.384;13.420;2023-03-20T06:36:28;74.83;;;40.00;;
11255;SDS011;5685;52.384;13.420;2023-03-20T06:39:31;74.87;;;39.97;;
11255;SDS011;5685;52.384;13.420;2023-03-20T06:42:34;74.77;;;39.93;;
11255;SDS011;5685;52.384;13.420;2023-03-20T06:45:37;74.77;;;39.87;;
11255;SDS011;5685;52.384;13.420;2023-03-20T06:48:42;75.10;;;40.10;;
11255;SDS011;5685;52.384;13.420;2023-03-20T06:51:45;74.93;;;40.10;;
11255;SDS011;5685;52.384;13.420;2023-03-20T06:54:47;74.60;;;40.00;;
11255;SDS011;5685;52.384;13.420;2023-03-20T06:57:51;74.90;;;39.90;;
11255;SDS011;5685;52.384;13.420;2023-03-20T07:00:53;74.70;;;39.87;;
11255;SDS011;5685;52.384;13.420;2023-03-20T07:03:57;74.70;;;39.97;;
11255;SDS011;5685;52.384;13.420;2023-03-20T07:07:00;74.90;;;40.00;;
11255;SDS011;5685;52.384;13.420;2023-03-20T07:10:04;74.60;;;39.87;;
11255;SDS011;5685;52.384;13.420;2023-03-20T07:13:08;74.77;;;39.93;;
11255;SDS011;5685;52.384;13.420;2023-03-20T07:16:11;74.40;;;40.00;;
11255;SDS011;5685;52.384;13.420;2023-03-20T07:19:15;74.73;;;39.87;;
11255;SDS011;5685;52.384;13.420;2023-03-20T07:22:20;74.60;;;40.00;;
11255;SDS011;5685;52.384;13.420;2023-03-20T07:25:23;74.43;;;39.90;;
11255;SDS011;5685;52.384;13.420;2023-03-20T07:28:26;75.10;;;40.10;;
11255;SDS011;5685;52.384;13.420;2023-03-20T07:31:29;74.90;;;40.00;;
11255;SDS011;5685;52.384;13.420;2023-03-20T07:34:34;74.87;;;40.10;;
11255;SDS011;5685;52.384;13.420;2023-03-20T07:37:36;75.00;;;40.03;;
11255;SDS011;5685;52.384;13.420;2023-03-20T07:40:40;74.50;;;39.83;;
11255;SDS011;5685;52.384;13.420;2023-03-20T07:43:42;74.10;;;39.60;;
11255;SDS011;5685;52.384;13.420;2023-03-20T07:46:45;74.67;;;39.80;;
11255;SDS011;5685;52.384;13.420;2023-03-20T07:49:49;74.50;;;39.80;;
11255;SDS011;5685;52.384;13.420;2023-03-20T07:52:52;74.70;;;39.93;;
11255;SDS011;5685;52.384;13.420;2023-03-20T07:55:55;74.53;;;39.90;;
11255;SDS011;5685;52.384;13.420;2023-03-20T07:58:57;74.43;;;39.80;;
11255;SDS011;5685;52.384;13.420;2023-03-20T08:02:00;74.40;;;39.80;;
11255;SDS011;5685;52.384;13.420;2023-03-20T08:05:05;74.53;;;39.90;;
11255;SDS011;5685;52.384;13.420;2023-03-20T08:08:08;74.30;;;40.00;;
11255;SDS011;5685;52.384;13.420;2023-03-20T08:11:11;74.77;;;40.00;;
11255;SDS011;5685;52.384;13.420;2023-03-20T08:14:13;74.33;;;39.90;;
11255;SDS011;5685;52.384;13.420;2023-03-20T08:17:16;74.33;;;39.87;;
11255;SDS011;5685;52.384;13.420;2023-03-20T08:20:20;74.60;;;39.90;;
11255;SDS011;5685;52.384;13.420;2023-03-20T08:23:23;74.10;;;39.70;;
11255;SDS011;5685;52.384;13.420;2023-03-20T08:26:26;74.17;;;39.87;;
11255;SDS011;5685;52.384;13.420;2023-03-20T08:29:29;74.27;;;39.87;;
11255;SDS011;5685;52.384;13.420;2023-03-20T08:32:31;74.30;;;39.87;;
11255;SDS011;5685;52.384;13.420;2023-03-20T08:35:36;74.47;;;40.00;;
11255;SDS011;5685;52.384;13.420;2023-03-20T08:38:39;74.30;;;39.90;;
11255;SDS011;5685;52.384;13.420;2023-03-20T08:41:42;74.17;;;39.90;;
11255;SDS011;5685;52.384;13.420;2023-03-20T08:44:44;73.57;;;39.67;;
11255;SDS011;5685;52.384;13.420;2023-03-20T08:47:47;74.40;;;40.00;;
11255;SDS011;5685;52.384;13.420;2023-03-20T08:50:52;73.83;;;39.90;;
11255;SDS011;5685;52.384;13.420;2023-03-20T08:53:55;74.13;;;39.90;;
11255;SDS011;5685;52.384;13.420;2023-03-20T08:56:57;74.23;;;39.90;;
11255;SDS011;5685;52.384;13.420;2023-03-20T09:00:00;74.70;;;39.93;;
11255;SDS011;5685;52.384;13.420;2023-03-20T09:03:03;74.10;;;39.83;;
11255;SDS011;5685;52.384;13.420;2023-03-20T09:06:08;74.17;;;39.83;;
11255;SDS011;5685;52.384;13.420;2023-03-20T09:09:11;74.30;;;40.00;;
11255;SDS011;5685;52.384;13.420;2023-03-20T09:12:15;74.10;;;39.80;;
11255;SDS011;5685;52.384;13.420;2023-03-20T09:15:18;74.20;;;39.90;;
11255;SDS011;5685;52.384;13.420;2023-03-20T09:18:20;73.73;;;39.77;;
11255;SDS011;5685;52.384;13.420;2023-03-20T09:21:25;74.20;;;40.00;;
11255;SDS011;5685;52.384;13.420;2023-03-20T09:24:28;74.10;;;39.70;;
11255;SDS011;5685;52.384;13.420;2023-03-20T09:27:32;73.73;;;39.70;;
11255;SDS011;5685;52.384;13.420;2023-03-20T09:30:35;73.50;;;39.60;;
11255;SDS011;5685;52.384;13.420;2023-03-20T09:33:38;74.03;;;39.80;;
11255;SDS011;5685;52.384;13.420;2023-03-20T09:36:42;73.70;;;39.77;;
11255;SDS011;5685;52.384;13.420;2023-03-20T09:39:45;73.83;;;40.00;;
11255;SDS011;5685;52.384;13.420;2023-03-20T09:42:50;73.77;;;39.77;;
11255;SDS011;5685;52.384;13.420;2023-03-20T09:45:59;74.10;;;39.90;;
11255;SDS011;5685;52.384;13.420;2023-03-20T09:49:16;73.50;;;39.77;;
11255;SDS011;5685;52.384;13.420;2023-03-20T09:52:27;73.57;;;39.70;;
11255;SDS011;5685;52.384;13.420;2023-03-20T09:55:33;73.30;;;39.60;;
11255;SDS011;5685;52.384;13.420;2023-03-20T09:58:37;73.77;;;39.80;;
11255;SDS011;5685;52.384;13.420;2023-03-20T10:01:43;73.37;;;39.63;;
11255;SDS011;5685;52.384;13.420;2023-03-20T10:04:49;73.27;;;39.57;;
11255;SDS011;5685;52.384;13.420;2023-03-20T10:07:55;73.23;;;39.67;;
11255;SDS011;5685;52.384;13.420;2023-03-20T10:11:02;73.90;;;40.00;;
11255;SDS011;5685;52.384;13.420;2023-03-20T10:14:12;73.10;;;39.50;;
11255;SDS011;5685;52.384;13.420;2023-03-20T10:17:27;72.73;;;39.27;;
11255;SDS011;5685;52.384;13.420;2023-03-20T10:20:37;73.23;;;39.50;;
11255;SDS011;5685;52.384;13.420;2023-03-20T10:23:47;73.90;;;39.80;;
11255;SDS011;5685;52.384;13.420;2023-03-20T10:26:54;73.63;;;39.67;;
11255;SDS011;5685;52.384;13.420;2023-03-20T10:30:02;73.67;;;39.77;;
11255;SDS011;5685;52.384;13.420;2023-03-20T10:33:22;73.50;;;39.70;;
11255;SDS011;5685;52.384;13.420;2023-03-20T10:36:37;73.20;;;39.60;;
11255;SDS011;5685;52.384;13.420;2023-03-20T10:39:50;73.57;;;39.67;;
11255;SDS011;5685;52.384;13.420;2023-03-20T10:42:59;73.73;;;39.80;;
11255;SDS011;5685;52.384;13.420;2023-03-20T10:46:04;74.00;;;39.90;;
11255;SDS011;5685;52.384;13.420;2023-03-20T10:49:10;73.60;;;39.70;;
11255;SDS011;5685;52.384;13.420;2023-03-20T10:52:15;73.37;;;39.70;;
11255;SDS011;5685;52.384;13.420;2023-03-20T10:55:21;72.80;;;39.43;;
11255;SDS011;5685;52.384;13.420;2023-03-20T10:58:27;73.50;;;39.80;;
11255;SDS011;5685;52.384;13.420;2023-03-20T11:01:32;73.33;;;39.70;;
11255;SDS011;5685;52.384;13.420;2023-03-20T11:04:35;73.63;;;39.80;;
11255;SDS011;5685;52.384;13.420;2023-03-20T11:07:37;73.03;;;39.57;;
11255;SDS011;5685;52.384;13.420;2023-03-20T11:10:42;73.27;;;39.70;;
11255;SDS011;5685;52.384;13.420;2023-03-20T11:13:45;73.47;;;39.80;;
11255;SDS011;5685;52.384;13.420;2023-03-20T11:16:48;73.60;;;39.87;;
11255;SDS011;5685;52.384;13.420;2023-03-20T11:19:51;73.00;;;39.60;;
11255;SDS011;5685;52.384;13.420;2023-03-20T11:22:57;73.67;;;39.80;;
11255;SDS011;5685;52.384;13.420;2023-03-20T11:26:04;73.40;;;39.73;;
11255;SDS011;5685;52.384;13.420;2023-03-20T11:29:09;73.27;;;39.80;;
11255;SDS011;5685;52.384;13.420;2023-03-20T11:32:27;73.33;;;39.80;;
11255;SDS011;5685;52.384;13.420;2023-03-20T11:35:31;72.70;;;39.53;;
11255;SDS011;5685;52.384;13.420;2023-03-20T11:38:35;72.97;;;39.57;;
11255;SDS011;5685;52.384;13.420;2023-03-20T11:41:51;72.97;;;39.70;;
11255;SDS011;5685;52.384;13.420;2023-03-20T11:44:55;73.00;;;39.77;;
11255;SDS011;5685;52.384;13.420;2023-03-20T11:47:59;73.40;;;39.80;;
11255;SDS011;5685;52.384;13.420;2023-03-20T11:51:03;72.73;;;39.53;;
11255;SDS011;5685;52.384;13.420;2023-03-20T11:54:12;72.73;;;39.57;;
11255;SDS011;5685;52.384;13.420;2023-03-20T11:57:27;73.27;;;39.90;;
11255;SDS011;5685;52.384;13.420;2023-03-20T12:00:35;73.10;;;39.70;;
11255;SDS011;5685;52.384;13.420;2023-03-20T12:03:41;73.00;;;39.70;;
11255;SDS011;5685;52.384;13.420;2023-03-20T12:06:46;73.43;;;39.87;;
11255;SDS011;5685;52.384;13.420;2023-03-20T12:09:53;73.67;;;40.10;;
11255;SDS011;5685;52.384;13.420;2023-03-20T12:13:00;73.20;;;39.90;;
11255;SDS011;5685;52.384;13.420;2023-03-20T12:16:05;73.20;;;39.77;;
11255;SDS011;5685;52.384;13.420;2023-03-20T12:19:12;72.90;;;39.70;;
11255;SDS011;5685;52.384;13.420;2023-03-20T12:22:20;73.30;;;39.80;;
11255;SDS011;5685;52.384;13.420;2023-03-20T12:25:25;72.80;;;39.60;;
11255;SDS011;5685;52.384;13.420;2023-03-20T12:28:32;72.73;;;39.60;;
11255;SDS011;5685;52.384;13.420;2023-03-20T12:31:38;72.30;;;39.47;;
11255;SDS011;5685;52.384;13.420;2023-03-20T12:34:43;72.70;;;39.70;;
11255;SDS011;5685;52.384;13.420;2023-03-20T12:37:48;72.30;;;39.50;;
11255;SDS011;5685;52.384;13.420;2023-03-20T12:40:52;72.80;;;39.70;;
11255;SDS011;5685;52.384;13.420;2023-03-20T12:47:37;72.17;;;39.33;;
11255;SDS011;5685;52.384;13.420;2023-03-20T12:51:10;72.07;;;39.43;;
11255;SDS011;5685;52.384;13.420;2023-03-20T12:54:24;72.30;;;39.50;;
11255;SDS011;5685;52.384;13.420;2023-03-20T12:57:35;72.53;;;39.63;;
11255;SDS011;5685;52.384;13.420;2023-03-20T13:00:41;72.43;;;39.63;;
11255;SDS011;5685;52.384;13.420;2023-03-20T13:03:55;72.90;;;39.80;;
11255;SDS011;5685;52.384;13.420;2023-03-20T13:07:04;72.70;;;39.67;;
11255;SDS011;5685;52.384;13.420;2023-03-20T13:10:16;73.03;;;39.90;;
11255;SDS011;5685;52.384;13.420;2023-03-20T13:13:23;72.47;;;39.47;;
11255;SDS011;5685;52.384;13.420;2023-03-20T13:16:36;72.43;;;39.60;;
11255;SDS011;5685;52.384;13.420;2023-03-20T13:19:45;72.47;;;39.67;;
11255;SDS011;5685;52.384;13.420;2023-03-20T13:22:53;72.40;;;39.50;;
11255;SDS011;5685;52.384;13.420;2023-03-20T13:26:23;72.73;;;39.80;;
11255;SDS011;5685;52.384;13.420;2023-03-20T13:29:32;72.27;;;39.60;;
11255;SDS011;5685;52.384;13.420;2023-03-20T13:32:45;72.23;;;39.47;;
11255;SDS011;5685;52.384;13.420;2023-03-20T13:35:53;72.27;;;39.47;;
11255;SDS011;5685;52.384;13.420;2023-03-20T13:38:59;72.73;;;39.73;;
11255;SDS011;5685;52.384;13.420;2023-03-20T13:42:08;72.17;;;39.47;;
11255;SDS011;5685;52.384;13.420;2023-03-20T13:45:18;72.17;;;39.57;;
11255;SDS011;5685;52.384;13.420;2023-03-20T13:48:30;72.23;;;39.57;;
11255;SDS011;5685;52.384;13.420;2023-03-20T13:51:35;72.27;;;39.57;;
11255;SDS011;5685;52.384;13.420;2023-03-20T13:54:51;72.13;;;39.50;;
11255;SDS011;5685;52.384;13.420;2023-03-20T13:58:05;72.37;;;39.57;;
11255;SDS011;5685;52.384;13.420;2023-03-20T14:01:16;72.43;;;39.70;;
11255;SDS011;5685;52.384;13.420;2023-03-20T14:04:24;72.13;;;39.47;;
11255;SDS011;5685;52.384;13.420;2023-03-20T14:07:29;72.37;;;39.60;;
11255;SDS011;5685;52.384;13.420;2023-03-20T14:10:35;72.20;;;39.60;;
11255;SDS011;5685;52.384;13.420;2023-03-20T14:13:39;72.10;;;39.50;;
11255;SDS011;5685;52.384;13.420;2023-03-20T14:16:44;71.93;;;39.47;;
11255;SDS011;5685;52.384;13.420;2023-03-20T14:19:49;71.90;;;39.60;;
11255;SDS011;5685;52.384;13.420;2023-03-20T14:22:52;71.83;;;39.47;;
11255;SDS011;5685;52.384;13.420;2023-03-20T14:25:57;72.07;;;39.57;;
11255;SDS011;5685;52.384;13.420;2023-03-20T14:29:01;71.77;;;39.43;;
11255;SDS011;5685;52.384;13.420;2023-03-20T14:32:22;71.77;;;39.40;;
11255;SDS011;5685;52.384;13.420;2023-03-20T14:35:37;71.83;;;39.57;;
11255;SDS011;5685;52.384;13.420;2023-03-20T14:38:43;71.20;;;39.40;;
11255;SDS011;5685;52.384;13.420;2023-03-20T14:42:01;70.50;;;38.93;;
11255;SDS011;5685;52.384;13.420;2023-03-20T14:48:40;71.20;;;39.30;;
11255;SDS011;5685;52.384;13.420;2023-03-20T14:51:46;71.17;;;39.13;;
11255;SDS011;5685;52.384;13.420;2023-03-20T14:54:52;71.67;;;39.47;;
11255;SDS011;5685;52.384;13.420;2023-03-20T14:57:56;71.43;;;39.27;;
11255;SDS011;5685;52.384;13.420;2023-03-20T15:01:02;71.13;;;39.17;;
11255;SDS011;5685;52.384;13.420;2023-03-20T15:04:08;71.83;;;39.47;;
11255;SDS011;5685;52.384;13.420;2023-03-20T15:07:22;71.57;;;39.40;;
11255;SDS011;5685;52.384;13.420;2023-03-20T15:10:27;71.20;;;39.30;;
11255;SDS011;5685;52.384;13.420;2023-03-20T15:13:30;71.23;;;39.20;;
11255;SDS011;5685;52.384;13.420;2023-03-20T15:16:36;71.70;;;39.47;;
11255;SDS011;5685;52.384;13.420;2023-03-20T15:19:39;71.23;;;39.40;;
11255;SDS011;5685;52.384;13.420;2023-03-20T15:22:50;70.93;;;39.23;;
11255;SDS011;5685;52.384;13.420;2023-03-20T15:25:53;71.27;;;39.50;;
11255;SDS011;5685;52.384;13.420;2023-03-20T15:28:58;71.37;;;39.47;;
11255;SDS011;5685;52.384;13.420;2023-03-20T15:32:01;71.13;;;39.27;;
11255;SDS011;5685;52.384;13.420;2023-03-20T15:35:05;71.00;;;39.40;;
11255;SDS011;5685;52.384;13.420;2023-03-20T15:38:11;70.90;;;39.30;;
11255;SDS011;5685;52.384;13.420;2023-03-20T15:41:23;71.03;;;39.37;;
11255;SDS011;5685;52.384;13.420;2023-03-20T15:44:32;71.07;;;39.40;;
11255;SDS011;5685;52.384;13.420;2023-03-20T15:47:35;70.57;;;39.17;;
11255;SDS011;5685;52.384;13.420;2023-03-20T15:50:38;71.03;;;39.43;;
11255;SDS011;5685;52.384;13.420;2023-03-20T15:53:46;70.83;;;39.33;;
11255;SDS011;5685;52.384;13.420;2023-03-20T15:56:50;70.93;;;39.40;;
11255;SDS011;5685;52.384;13.420;2023-03-20T15:59:53;70.50;;;39.20;;
11255;SDS011;5685;52.384;13.420;2023-03-20T16:02:57;70.70;;;39.27;;
11255;SDS011;5685;52.384;13.420;2023-03-20T16:06:01;71.10;;;39.47;;
11255;SDS011;5685;52.384;13.420;2023-03-20T16:09:06;70.93;;;39.30;;
11255;SDS011;5685;52.384;13.420;2023-03-20T16:12:12;70.53;;;39.10;;
11255;SDS011;5685;52.384;13.420;2023-03-20T16:15:17;70.87;;;39.30;;
11255;SDS011;5685;52.384;13.420;2023-03-20T16:18:21;71.07;;;39.43;;
11255;SDS011;5685;52.384;13.420;2023-03-20T16:21:24;71.23;;;39.40;;
11255;SDS011;5685;52.384;13.420;2023-03-20T16:24:33;70.70;;;39.10;;
11255;SDS011;5685;52.384;13.420;2023-03-20T16:27:37;71.20;;;39.43;;
11255;SDS011;5685;52.384;13.420;2023-03-20T16:30:41;71.00;;;39.40;;
11255;SDS011;5685;52.384;13.420;2023-03-20T16:33:44;71.23;;;39.50;;
11255;SDS011;5685;52.384;13.420;2023-03-20T16:36:48;70.70;;;39.30;;
11255;SDS011;5685;52.384;13.420;2023-03-20T16:40:09;70.40;;;39.20;;
11255;SDS011;5685;52.384;13.420;2023-03-20T16:43:16;70.37;;;39.37;;
11255;SDS011;5685;52.384;13.420;2023-03-20T16:46:20;70.20;;;39.27;;
11255;SDS011;5685;52.384;13.420;2023-03-20T16:52:55;70.60;;;39.33;;
11255;SDS011;5685;52.384;13.420;2023-03-20T16:56:00;70.07;;;39.03;;
11255;SDS011;5685;52.384;13.420;2023-03-20T16:59:05;70.83;;;39.37;;
11255;SDS011;5685;52.384;13.420;2023-03-20T17:02:10;70.23;;;39.23;;
11255;SDS011;5685;52.384;13.420;2023-03-20T17:05:18;70.47;;;39.30;;
11255;SDS011;5685;52.384;13.420;2023-03-20T17:08:25;70.50;;;39.43;;
11255;SDS011;5685;52.384;13.420;2023-03-20T17:11:33;70.57;;;39.30;;
11255;SDS011;5685;52.384;13.420;2023-03-20T17:14:37;70.47;;;39.50;;
11255;SDS011;5685;52.384;13.420;2023-03-20T17:17:40;70.63;;;39.47;;
11255;SDS011;5685;52.384;13.420;2023-03-20T17:20:43;70.57;;;39.43;;
11255;SDS011;5685;52.384;13.420;2023-03-20T17:23:46;70.93;;;39.53;;
11255;SDS011;5685;52.384;13.420;2023-03-20T17:26:51;70.60;;;39.40;;
11255;SDS011;5685;52.384;13.420;2023-03-20T17:29:56;70.93;;;39.40;;
11255;SDS011;5685;52.384;13.420;2023-03-20T17:32:58;70.77;;;39.37;;
11255;SDS011;5685;52.384;13.420;2023-03-20T17:36:01;71.17;;;39.50;;
11255;SDS011;5685;52.384;13.420;2023-03-20T17:39:04;71.87;;;39.87;;
11255;SDS011;5685;52.384;13.420;2023-03-20T17:42:11;71.17;;;39.57;;
11255;SDS011;5685;52.384;13.420;2023-03-20T17:45:17;70.63;;;39.23;;
11255;SDS011;5685;52.384;13.420;2023-03-20T17:48:20;71.73;;;39.63;;
11255;SDS011;5685;52.384;13.420;2023-03-20T17:51:23;71.10;;;39.50;;
11255;SDS011;5685;52.384;13.420;2023-03-20T17:54:26;71.33;;;39.40;;
11255;SDS011;5685;52.384;13.420;2023-03-20T17:57:31;71.83;;;39.60;;
11255;SDS011;5685;52.384;13.420;2023-03-20T18:00:35;71.43;;;39.43;;
11255;SDS011;5685;52.384;13.420;2023-03-20T18:03:37;71.03;;;39.30;;
11255;SDS011;5685;52.384;13.420;2023-03-20T18:06:40;71.33;;;39.50;;
11255;SDS011;5685;52.384;13.420;2023-03-20T18:09:43;71.20;;;39.30;;
11255;SDS011;5685;52.384;13.420;2023-03-20T18:12:49;71.97;;;39.70;;
11255;SDS011;5685;52.384;13.420;2023-03-20T18:15:52;71.13;;;39.33;;
11255;SDS011;5685;52.384;13.420;2023-03-20T18:18:56;71.30;;;39.37;;
11255;SDS011;5685;52.384;13.420;2023-03-20T18:22:00;71.30;;;39.40;;
11255;SDS011;5685;52.384;13.420;2023-03-20T18:25:03;71.40;;;39.60;;